Portada
METAR-TAF:

METAR-TAF

Aeroports :

Harbin, Xina

latitud: 45-45N, longitud: 126-46E, altitud: 143 m

Observació

L'informe es va fer fa 45 minuts, a les 09:00 UTC
Vent 10 kt del Nord
Temperatura 9°C
Humitat 27%
Pressió 1016 hPa
Visibilitat 10 km o més
sense núvols per sota de 1500 mi sense presència de cumulonimbus.

METAR: ZYHB 020900Z 36005MPS CAVOK 09/M09 Q1016 NOSIG

Hora: 17:45 (09:45 UTC)

Pronòstic

L'informe es va fer fa 6 hores i 42 minuts, a les 03:03 UTC
Pronòstic vàlid del 02 a les 06 UTC al 03 a les 06 UTC
Vent 17 kt del Nord amb ràfegues de 29 kt
Visibilitat: 6000 m
Escasses núvols a una alçada de 3000 ft
Evolucionant progressivament
l' 02 a les 08 UTC al 02 a les 10 UTC
Vent 8 kt del Oest/Nord-Oest

TAF: ZYHB 020303Z 0206/0306 35009G15MPS 6000 FEW030 TX14/0206Z TNM01/0221Z BECMG 0208/0210 29004MPS

Observacions i pronòstics meteorològics de més de 4000 aeroports (METAR i TAF).

Les estacions disponibles són els punts grocs i vermells al mapa.

Posi el ratolí al punt desitjat per veure el nom de l'estació.

Feu clic per veure les observacions i els pronòstics meteorològics.

Per canviar el mapa: feu clic els botons verds amb una creu de color negre per apropar; al botó verd amb un guió per allunyar la imatge; o en les fletxes verdes per a mapes adjacents.


METAR-TAF: